sensor_id;sensor_type;location;lat;lon;timestamp;pressure;altitude;pressure_sealevel;temperature;humidity
58373;BME280;44177;43.356;27.672;2023-06-26T00:01:51;97686.44;;;19.28;100.00
58373;BME280;44177;43.356;27.672;2023-06-26T00:04:16;97685.69;;;19.23;100.00
58373;BME280;44177;43.356;27.672;2023-06-26T00:06:42;97683.31;;;19.25;100.00
58373;BME280;44177;43.356;27.672;2023-06-26T00:09:07;97683.41;;;19.18;100.00
58373;BME280;44177;43.356;27.672;2023-06-26T00:11:33;97680.66;;;19.18;100.00
58373;BME280;44177;43.356;27.672;2023-06-26T00:14:01;97683.09;;;19.13;100.00
58373;BME280;44177;43.356;27.672;2023-06-26T00:16:27;97685.84;;;19.13;100.00
58373;BME280;44177;43.356;27.672;2023-06-26T00:18:53;97683.63;;;19.04;100.00
58373;BME280;44177;43.356;27.672;2023-06-26T00:21:19;97686.78;;;19.02;100.00
58373;BME280;44177;43.356;27.672;2023-06-26T00:23:45;97686.00;;;19.02;100.00
58373;BME280;44177;43.356;27.672;2023-06-26T00:26:11;97683.63;;;19.04;100.00
58373;BME280;44177;43.356;27.672;2023-06-26T00:28:37;97668.53;;;19.08;100.00
58373;BME280;44177;43.356;27.672;2023-06-26T00:31:02;97674.94;;;19.02;100.00
58373;BME280;44177;43.356;27.672;2023-06-26T00:33:28;97678.53;;;18.99;100.00
58373;BME280;44177;43.356;27.672;2023-06-26T00:35:53;97677.75;;;18.98;100.00
58373;BME280;44177;43.356;27.672;2023-06-26T00:38:19;97669.91;;;18.97;100.00
58373;BME280;44177;43.356;27.672;2023-06-26T00:40:44;97670.25;;;18.99;100.00
58373;BME280;44177;43.356;27.672;2023-06-26T00:43:10;97663.94;;;18.98;100.00
58373;BME280;44177;43.356;27.672;2023-06-26T00:45:35;97663.94;;;18.98;100.00
58373;BME280;44177;43.356;27.672;2023-06-26T00:48:01;97672.59;;;19.00;100.00
58373;BME280;44177;43.356;27.672;2023-06-26T00:50:27;97673.81;;;18.99;100.00
58373;BME280;44177;43.356;27.672;2023-06-26T00:52:53;97671.41;;;19.01;100.00
58373;BME280;44177;43.356;27.672;2023-06-26T00:55:22;97665.09;;;19.01;100.00
58373;BME280;44177;43.356;27.672;2023-06-26T00:57:47;97661.84;;;19.06;100.00
58373;BME280;44177;43.356;27.672;2023-06-26T01:00:13;97669.91;;;18.97;100.00
58373;BME280;44177;43.356;27.672;2023-06-26T01:02:39;97667.13;;;18.97;100.00
58373;BME280;44177;43.356;27.672;2023-06-26T01:05:05;97664.00;;;18.94;100.00
58373;BME280;44177;43.356;27.672;2023-06-26T01:07:32;97671.81;;;19.00;100.00
58373;BME280;44177;43.356;27.672;2023-06-26T01:10:03;97665.50;;;18.99;100.00
58373;BME280;44177;43.356;27.672;2023-06-26T01:12:30;97671.81;;;19.00;100.00
58373;BME280;44177;43.356;27.672;2023-06-26T01:14:56;97663.16;;;18.98;100.00
58373;BME280;44177;43.356;27.672;2023-06-26T01:17:21;97674.56;;;19.00;100.00
58373;BME280;44177;43.356;27.672;2023-06-26T01:19:48;97669.41;;;19.02;100.00
58373;BME280;44177;43.356;27.672;2023-06-26T01:22:56;97668.94;;;19.07;100.00
58373;BME280;44177;43.356;27.672;2023-06-26T01:28:13;97666.13;;;19.10;100.00
58373;BME280;44177;43.356;27.672;2023-06-26T01:30:42;97664.53;;;19.13;100.00
58373;BME280;44177;43.356;27.672;2023-06-26T01:33:09;97666.06;;;19.14;100.00
58373;BME280;44177;43.356;27.672;2023-06-26T01:35:36;97662.16;;;19.12;100.00
58373;BME280;44177;43.356;27.672;2023-06-26T01:38:18;97667.31;;;19.13;100.00
58373;BME280;44177;43.356;27.672;2023-06-26T01:40:45;97657.06;;;19.10;100.00
58373;BME280;44177;43.356;27.672;2023-06-26T01:45:50;97668.72;;;19.25;100.00
58373;BME280;44177;43.356;27.672;2023-06-26T01:48:22;97672.19;;;19.29;100.00
58373;BME280;44177;43.356;27.672;2023-06-26T01:50:51;97669.00;;;19.31;100.00
58373;BME280;44177;43.356;27.672;2023-06-26T01:53:20;97661.19;;;19.25;100.00
58373;BME280;44177;43.356;27.672;2023-06-26T01:55:55;97666.34;;;19.23;100.00
58373;BME280;44177;43.356;27.672;2023-06-26T01:58:25;97666.34;;;19.23;100.00
58373;BME280;44177;43.356;27.672;2023-06-26T02:00:51;97668.38;;;19.19;100.00
58373;BME280;44177;43.356;27.672;2023-06-26T02:03:17;97652.56;;;19.20;100.00
58373;BME280;44177;43.356;27.672;2023-06-26T02:05:43;97658.38;;;19.29;100.00
58373;BME280;44177;43.356;27.672;2023-06-26T02:08:09;97651.59;;;19.34;100.00
58373;BME280;44177;43.356;27.672;2023-06-26T02:10:35;97659.06;;;19.37;100.00
58373;BME280;44177;43.356;27.672;2023-06-26T02:13:01;97654.78;;;19.32;100.00
58373;BME280;44177;43.356;27.672;2023-06-26T02:15:26;97649.53;;;19.38;100.00
58373;BME280;44177;43.356;27.672;2023-06-26T02:17:52;97653.09;;;19.38;100.00
58373;BME280;44177;43.356;27.672;2023-06-26T02:20:17;97647.63;;;19.35;100.00
58373;BME280;44177;43.356;27.672;2023-06-26T02:22:43;97642.91;;;19.32;100.00
58373;BME280;44177;43.356;27.672;2023-06-26T02:25:11;97637.38;;;19.32;100.00
58373;BME280;44177;43.356;27.672;2023-06-26T02:27:38;97634.63;;;19.32;100.00
58373;BME280;44177;43.356;27.672;2023-06-26T02:30:04;97633.47;;;19.29;100.00
58373;BME280;44177;43.356;27.672;2023-06-26T02:32:29;97642.81;;;19.39;100.00
58373;BME280;44177;43.356;27.672;2023-06-26T02:34:55;97641.97;;;19.42;100.00
58373;BME280;44177;43.356;27.672;2023-06-26T02:37:20;97637.16;;;19.46;100.00
58373;BME280;44177;43.356;27.672;2023-06-26T02:39:46;97633.19;;;19.47;100.00
58373;BME280;44177;43.356;27.672;2023-06-26T02:42:11;97639.22;;;19.42;100.00
58373;BME280;44177;43.356;27.672;2023-06-26T02:44:37;97635.63;;;19.41;100.00
58373;BME280;44177;43.356;27.672;2023-06-26T02:47:02;97626.31;;;19.32;100.00
58373;BME280;44177;43.356;27.672;2023-06-26T02:49:28;97641.16;;;19.45;100.00
58373;BME280;44177;43.356;27.672;2023-06-26T02:51:53;97645.06;;;19.48;100.00
58373;BME280;44177;43.356;27.672;2023-06-26T02:54:19;97640.34;;;19.45;100.00
58373;BME280;44177;43.356;27.672;2023-06-26T02:56:44;97643.38;;;19.54;100.00
58373;BME280;44177;43.356;27.672;2023-06-26T02:59:10;97640.16;;;19.55;100.00
58373;BME280;44177;43.356;27.672;2023-06-26T03:01:35;97648.09;;;19.53;100.00
58373;BME280;44177;43.356;27.672;2023-06-26T03:04:01;97642.28;;;19.48;100.00
58373;BME280;44177;43.356;27.672;2023-06-26T03:06:27;97645.09;;;19.44;100.00
58373;BME280;44177;43.356;27.672;2023-06-26T03:08:53;97644.13;;;19.54;100.00
58373;BME280;44177;43.356;27.672;2023-06-26T03:11:19;97648.09;;;19.53;100.00
58373;BME280;44177;43.356;27.672;2023-06-26T03:13:45;97649.25;;;19.56;100.00
58373;BME280;44177;43.356;27.672;2023-06-26T03:16:10;97644.06;;;19.58;100.00
58373;BME280;44177;43.356;27.672;2023-06-26T03:18:36;97647.63;;;19.59;100.00
58373;BME280;44177;43.356;27.672;2023-06-26T03:21:01;97662.28;;;19.55;100.00
58373;BME280;44177;43.356;27.672;2023-06-26T03:23:27;97658.75;;;19.55;100.00
58373;BME280;44177;43.356;27.672;2023-06-26T03:25:53;97654.44;;;19.54;100.00
58373;BME280;44177;43.356;27.672;2023-06-26T03:28:18;97651.22;;;19.55;100.00
58373;BME280;44177;43.356;27.672;2023-06-26T03:30:44;97657.91;;;19.58;100.00
58373;BME280;44177;43.356;27.672;2023-06-26T03:33:09;97648.91;;;19.54;100.00
58373;BME280;44177;43.356;27.672;2023-06-26T03:35:35;97654.44;;;19.54;100.00
58373;BME280;44177;43.356;27.672;2023-06-26T03:38:01;97655.94;;;19.59;100.00
58373;BME280;44177;43.356;27.672;2023-06-26T03:40:26;97660.72;;;19.54;100.00
58373;BME280;44177;43.356;27.672;2023-06-26T03:42:52;97654.38;;;19.57;100.00
58373;BME280;44177;43.356;27.672;2023-06-26T03:45:17;97651.13;;;19.63;100.00
58373;BME280;44177;43.356;27.672;2023-06-26T03:47:44;97651.00;;;19.70;100.00
58373;BME280;44177;43.356;27.672;2023-06-26T03:50:12;97652.56;;;19.71;100.00
58373;BME280;44177;43.356;27.672;2023-06-26T03:52:37;97654.06;;;19.76;100.00
58373;BME280;44177;43.356;27.672;2023-06-26T03:55:03;97657.00;;;19.65;100.00
58373;BME280;44177;43.356;27.672;2023-06-26T03:57:29;97657.50;;;19.60;100.00
58373;BME280;44177;43.356;27.672;2023-06-26T03:59:54;97657.50;;;19.60;100.00
58373;BME280;44177;43.356;27.672;2023-06-26T04:02:20;97656.59;;;19.66;100.00
58373;BME280;44177;43.356;27.672;2023-06-26T04:04:45;97657.00;;;19.65;100.00
58373;BME280;44177;43.356;27.672;2023-06-26T04:07:10;97655.88;;;19.62;100.00
58373;BME280;44177;43.356;27.672;2023-06-26T04:09:36;97669.28;;;19.64;100.00
58373;BME280;44177;43.356;27.672;2023-06-26T04:12:02;97663.09;;;19.56;100.00
58373;BME280;44177;43.356;27.672;2023-06-26T04:14:27;97667.47;;;19.53;100.00
58373;BME280;44177;43.356;27.672;2023-06-26T04:16:53;97659.53;;;19.55;100.00
58373;BME280;44177;43.356;27.672;2023-06-26T04:19:18;97660.53;;;19.69;100.00
58373;BME280;44177;43.356;27.672;2023-06-26T04:21:44;97658.59;;;19.66;100.00
58373;BME280;44177;43.356;27.672;2023-06-26T04:24:10;97662.53;;;19.65;100.00
58373;BME280;44177;43.356;27.672;2023-06-26T04:26:35;97659.16;;;19.53;100.00
58373;BME280;44177;43.356;27.672;2023-06-26T04:29:01;97655.44;;;19.40;100.00
58373;BME280;44177;43.356;27.672;2023-06-26T04:31:26;97652.06;;;19.29;100.00
58373;BME280;44177;43.356;27.672;2023-06-26T04:33:52;97660.41;;;19.25;100.00
58373;BME280;44177;43.356;27.672;2023-06-26T04:36:20;97651.22;;;19.32;100.00
58373;BME280;44177;43.356;27.672;2023-06-26T04:38:46;97635.03;;;19.30;100.00
58373;BME280;44177;43.356;27.672;2023-06-26T04:41:13;97647.50;;;19.42;100.00
58373;BME280;44177;43.356;27.672;2023-06-26T04:43:39;97651.78;;;19.47;100.00
58373;BME280;44177;43.356;27.672;2023-06-26T04:46:05;97640.66;;;19.50;100.00
58373;BME280;44177;43.356;27.672;2023-06-26T04:48:31;97645.00;;;19.51;100.00
58373;BME280;44177;43.356;27.672;2023-06-26T04:50:57;97635.38;;;19.60;100.00
58373;BME280;44177;43.356;27.672;2023-06-26T04:53:24;97635.38;;;19.60;100.00
58373;BME280;44177;43.356;27.672;2023-06-26T04:55:50;97640.84;;;19.63;100.00
58373;BME280;44177;43.356;27.672;2023-06-26T04:58:16;97652.75;;;19.60;100.00
58373;BME280;44177;43.356;27.672;2023-06-26T05:00:42;97650.78;;;19.61;99.87
58373;BME280;44177;43.356;27.672;2023-06-26T05:03:09;97644.38;;;19.64;100.00
58373;BME280;44177;43.356;27.672;2023-06-26T05:05:34;97635.06;;;19.54;100.00
58373;BME280;44177;43.356;27.672;2023-06-26T05:08:13;97651.97;;;19.60;99.86
58373;BME280;44177;43.356;27.672;2023-06-26T05:10:38;97660.59;;;19.38;100.00
58373;BME280;44177;43.356;27.672;2023-06-26T05:13:04;97662.75;;;19.27;100.00
58373;BME280;44177;43.356;27.672;2023-06-26T05:15:29;97667.75;;;19.35;100.00
58373;BME280;44177;43.356;27.672;2023-06-26T05:17:55;97666.00;;;19.21;100.00
58373;BME280;44177;43.356;27.672;2023-06-26T05:20:20;97671.16;;;19.19;100.00
58373;BME280;44177;43.356;27.672;2023-06-26T05:22:46;97674.38;;;19.14;100.00
58373;BME280;44177;43.356;27.672;2023-06-26T05:25:12;97679.19;;;19.10;100.00
58373;BME280;44177;43.356;27.672;2023-06-26T05:27:38;97685.75;;;19.20;100.00
58373;BME280;44177;43.356;27.672;2023-06-26T05:30:04;97685.59;;;19.31;100.00
58373;BME280;44177;43.356;27.672;2023-06-26T05:32:34;97683.47;;;19.42;100.00
58373;BME280;44177;43.356;27.672;2023-06-26T05:35:01;97684.53;;;19.48;100.00
58373;BME280;44177;43.356;27.672;2023-06-26T05:37:28;97684.53;;;19.48;98.61
58373;BME280;44177;43.356;27.672;2023-06-26T05:39:54;97692.06;;;19.48;98.04
58373;BME280;44177;43.356;27.672;2023-06-26T05:42:20;97693.97;;;19.51;98.49
58373;BME280;44177;43.356;27.672;2023-06-26T05:44:45;97694.44;;;19.73;97.72
58373;BME280;44177;43.356;27.672;2023-06-26T05:47:11;97694.38;;;19.77;96.33
58373;BME280;44177;43.356;27.672;2023-06-26T05:49:36;97706.59;;;19.79;95.65
58373;BME280;44177;43.356;27.672;2023-06-26T05:52:02;97711.28;;;19.82;95.14
58373;BME280;44177;43.356;27.672;2023-06-26T05:54:27;97701.09;;;19.76;94.92
58373;BME280;44177;43.356;27.672;2023-06-26T05:56:58;97703.72;;;19.86;95.37
58373;BME280;44177;43.356;27.672;2023-06-26T05:59:24;97706.38;;;19.94;95.07
58373;BME280;44177;43.356;27.672;2023-06-26T06:01:51;97710.81;;;20.11;95.79
58373;BME280;44177;43.356;27.672;2023-06-26T06:04:17;97707.56;;;20.16;94.14
58373;BME280;44177;43.356;27.672;2023-06-26T06:06:42;97708.50;;;20.30;93.19
58373;BME280;44177;43.356;27.672;2023-06-26T06:09:08;97709.81;;;20.45;93.41
58373;BME280;44177;43.356;27.672;2023-06-26T06:11:33;97711.38;;;20.46;93.12
58373;BME280;44177;43.356;27.672;2023-06-26T06:13:59;97709.16;;;20.38;92.37
58373;BME280;44177;43.356;27.672;2023-06-26T06:16:25;97710.28;;;20.60;92.28
58373;BME280;44177;43.356;27.672;2023-06-26T06:18:51;97703.50;;;20.85;91.27
58373;BME280;44177;43.356;27.672;2023-06-26T06:21:16;97698.81;;;21.02;89.81
58373;BME280;44177;43.356;27.672;2023-06-26T06:23:42;97698.28;;;21.07;89.66
58373;BME280;44177;43.356;27.672;2023-06-26T06:26:07;97704.38;;;20.82;90.29
58373;BME280;44177;43.356;27.672;2023-06-26T06:28:33;97714.22;;;20.63;90.47
58373;BME280;44177;43.356;27.672;2023-06-26T06:30:58;97706.06;;;20.56;90.78
58373;BME280;44177;43.356;27.672;2023-06-26T06:33:24;97711.13;;;20.81;90.51
58373;BME280;44177;43.356;27.672;2023-06-26T06:35:49;97705.91;;;21.03;88.80
58373;BME280;44177;43.356;27.672;2023-06-26T06:38:15;97710.31;;;21.01;89.61
58373;BME280;44177;43.356;27.672;2023-06-26T06:40:40;97709.47;;;20.83;88.37
58373;BME280;44177;43.356;27.672;2023-06-26T06:43:05;97711.78;;;21.05;88.10
58373;BME280;44177;43.356;27.672;2023-06-26T06:45:31;97708.97;;;21.25;87.39
58373;BME280;44177;43.356;27.672;2023-06-26T06:47:56;97703.66;;;21.51;86.44
58373;BME280;44177;43.356;27.672;2023-06-26T06:50:22;97706.03;;;21.86;85.52
58373;BME280;44177;43.356;27.672;2023-06-26T06:52:47;97701.50;;;22.38;83.07
58373;BME280;44177;43.356;27.672;2023-06-26T06:55:13;97698.63;;;22.58;81.51
58373;BME280;44177;43.356;27.672;2023-06-26T06:57:39;97702.91;;;22.76;82.25
58373;BME280;44177;43.356;27.672;2023-06-26T07:00:12;97697.69;;;22.91;78.84
58373;BME280;44177;43.356;27.672;2023-06-26T07:02:41;97701.56;;;22.93;79.05
58373;BME280;44177;43.356;27.672;2023-06-26T07:05:07;97702.94;;;23.01;80.50
58373;BME280;44177;43.356;27.672;2023-06-26T07:07:33;97700.50;;;23.03;77.59
58373;BME280;44177;43.356;27.672;2023-06-26T07:10:00;97705.50;;;23.09;77.38
58373;BME280;44177;43.356;27.672;2023-06-26T07:12:26;97709.53;;;23.08;76.67
58373;BME280;44177;43.356;27.672;2023-06-26T07:14:52;97706.25;;;22.96;76.57
58373;BME280;44177;43.356;27.672;2023-06-26T07:17:19;97704.69;;;22.95;77.20
58373;BME280;44177;43.356;27.672;2023-06-26T07:19:44;97705.22;;;23.58;76.97
58373;BME280;44177;43.356;27.672;2023-06-26T07:22:10;97690.00;;;24.11;75.92
58373;BME280;44177;43.356;27.672;2023-06-26T07:24:36;97706.28;;;24.70;72.45
58373;BME280;44177;43.356;27.672;2023-06-26T07:27:02;97706.53;;;24.85;71.64
58373;BME280;44177;43.356;27.672;2023-06-26T07:29:27;97705.09;;;24.80;70.25
58373;BME280;44177;43.356;27.672;2023-06-26T07:31:52;97709.75;;;24.61;70.06
58373;BME280;44177;43.356;27.672;2023-06-26T07:34:18;97707.16;;;24.44;70.65
58373;BME280;44177;43.356;27.672;2023-06-26T07:36:43;97713.47;;;24.23;71.10
58373;BME280;44177;43.356;27.672;2023-06-26T07:39:09;97704.00;;;24.20;70.67
58373;BME280;44177;43.356;27.672;2023-06-26T07:41:34;97716.44;;;24.28;70.97
58373;BME280;44177;43.356;27.672;2023-06-26T07:43:59;97726.53;;;24.13;70.32
58373;BME280;44177;43.356;27.672;2023-06-26T07:46:25;97725.06;;;24.21;70.76
58373;BME280;44177;43.356;27.672;2023-06-26T07:48:50;97727.19;;;24.17;72.09
58373;BME280;44177;43.356;27.672;2023-06-26T07:51:16;97732.69;;;23.95;71.91
58373;BME280;44177;43.356;27.672;2023-06-26T07:53:41;97738.28;;;23.95;71.56
58373;BME280;44177;43.356;27.672;2023-06-26T07:56:07;97735.25;;;23.89;72.77
58373;BME280;44177;43.356;27.672;2023-06-26T07:58:32;97733.03;;;23.84;72.92
58373;BME280;44177;43.356;27.672;2023-06-26T08:00:58;97742.16;;;23.72;71.96
58373;BME280;44177;43.356;27.672;2023-06-26T08:03:23;97742.72;;;23.54;72.60
58373;BME280;44177;43.356;27.672;2023-06-26T08:05:49;97740.16;;;23.85;72.58
58373;BME280;44177;43.356;27.672;2023-06-26T08:08:14;97743.16;;;24.04;70.87
58373;BME280;44177;43.356;27.672;2023-06-26T08:10:40;97748.72;;;24.04;70.81
58373;BME280;44177;43.356;27.672;2023-06-26T08:13:05;97750.19;;;23.95;69.96
58373;BME280;44177;43.356;27.672;2023-06-26T08:15:31;97742.03;;;24.01;70.74
58373;BME280;44177;43.356;27.672;2023-06-26T08:17:56;97752.94;;;24.08;70.38
58373;BME280;44177;43.356;27.672;2023-06-26T08:20:22;97745.28;;;23.74;69.21
58373;BME280;44177;43.356;27.672;2023-06-26T08:22:48;97750.75;;;24.03;68.92
58373;BME280;44177;43.356;27.672;2023-06-26T08:25:15;97744.63;;;23.95;68.83
58373;BME280;44177;43.356;27.672;2023-06-26T08:27:41;97751.06;;;23.92;69.54
58373;BME280;44177;43.356;27.672;2023-06-26T08:30:07;97756.53;;;23.57;69.75
58373;BME280;44177;43.356;27.672;2023-06-26T08:32:32;97746.84;;;23.49;71.89
58373;BME280;44177;43.356;27.672;2023-06-26T08:34:58;97748.75;;;23.52;70.58
58373;BME280;44177;43.356;27.672;2023-06-26T08:37:23;97750.50;;;23.72;69.73
58373;BME280;44177;43.356;27.672;2023-06-26T08:39:49;97752.94;;;24.08;71.46
58373;BME280;44177;43.356;27.672;2023-06-26T08:42:14;97747.25;;;24.12;68.33
58373;BME280;44177;43.356;27.672;2023-06-26T08:44:39;97742.75;;;24.27;68.50
58373;BME280;44177;43.356;27.672;2023-06-26T08:47:05;97745.84;;;24.42;68.15
58373;BME280;44177;43.356;27.672;2023-06-26T08:49:51;97746.03;;;24.48;68.04
58373;BME280;44177;43.356;27.672;2023-06-26T08:52:30;97744.09;;;24.58;67.10
58373;BME280;44177;43.356;27.672;2023-06-26T08:54:58;97745.38;;;24.79;65.79
58373;BME280;44177;43.356;27.672;2023-06-26T08:57:25;97738.16;;;25.13;67.09
58373;BME280;44177;43.356;27.672;2023-06-26T08:59:52;97738.53;;;25.25;65.44
58373;BME280;44177;43.356;27.672;2023-06-26T09:02:18;97743.75;;;24.91;64.99
58373;BME280;44177;43.356;27.672;2023-06-26T09:04:43;97740.06;;;24.72;65.33
58373;BME280;44177;43.356;27.672;2023-06-26T09:07:09;97731.97;;;25.18;63.54
58373;BME280;44177;43.356;27.672;2023-06-26T09:09:35;97742.41;;;25.27;62.55
58373;BME280;44177;43.356;27.672;2023-06-26T09:12:04;97738.28;;;26.51;61.33
58373;BME280;44177;43.356;27.672;2023-06-26T09:14:29;97733.88;;;27.15;58.12
58373;BME280;44177;43.356;27.672;2023-06-26T09:16:55;97734.75;;;27.30;57.41
58373;BME280;44177;43.356;27.672;2023-06-26T09:19:20;97734.63;;;27.67;54.82
58373;BME280;44177;43.356;27.672;2023-06-26T09:21:49;97729.97;;;28.61;54.65
58373;BME280;44177;43.356;27.672;2023-06-26T09:24:15;97727.50;;;28.93;52.63
58373;BME280;44177;43.356;27.672;2023-06-26T09:26:41;97734.41;;;29.73;51.22
58373;BME280;44177;43.356;27.672;2023-06-26T09:29:07;97733.31;;;30.41;47.42
58373;BME280;44177;43.356;27.672;2023-06-26T09:31:35;97724.81;;;30.83;48.81
58373;BME280;44177;43.356;27.672;2023-06-26T09:34:01;97730.16;;;31.07;47.05
58373;BME280;44177;43.356;27.672;2023-06-26T09:36:29;97725.16;;;31.17;46.53
58373;BME280;44177;43.356;27.672;2023-06-26T09:39:02;97731.56;;;30.65;45.63
58373;BME280;44177;43.356;27.672;2023-06-26T09:41:28;97736.91;;;30.01;46.55
58373;BME280;44177;43.356;27.672;2023-06-26T09:43:54;97735.34;;;30.00;46.89
58373;BME280;44177;43.356;27.672;2023-06-26T09:46:27;97734.22;;;29.91;46.87
58373;BME280;44177;43.356;27.672;2023-06-26T09:49:03;97739.19;;;29.67;47.41
58373;BME280;44177;43.356;27.672;2023-06-26T09:51:34;97724.09;;;30.00;47.08
58373;BME280;44177;43.356;27.672;2023-06-26T09:54:00;97720.34;;;30.50;45.94
58373;BME280;44177;43.356;27.672;2023-06-26T09:56:27;97717.06;;;30.10;47.04
58373;BME280;44177;43.356;27.672;2023-06-26T09:58:55;97727.59;;;29.59;46.12
58373;BME280;44177;43.356;27.672;2023-06-26T10:01:26;97719.09;;;29.74;46.76
58373;BME280;44177;43.356;27.672;2023-06-26T10:03:53;97725.03;;;29.76;47.16
58373;BME280;44177;43.356;27.672;2023-06-26T10:06:22;97724.31;;;29.15;47.52
58373;BME280;44177;43.356;27.672;2023-06-26T10:08:50;97725.97;;;28.77;47.99
58373;BME280;44177;43.356;27.672;2023-06-26T10:11:19;97728.44;;;28.60;48.53
58373;BME280;44177;43.356;27.672;2023-06-26T10:13:49;97719.59;;;29.07;49.52
58373;BME280;44177;43.356;27.672;2023-06-26T10:16:26;97720.94;;;29.11;48.75
58373;BME280;44177;43.356;27.672;2023-06-26T10:18:57;97728.06;;;28.67;48.56
58373;BME280;44177;43.356;27.672;2023-06-26T10:21:26;97722.84;;;29.50;47.23
58373;BME280;44177;43.356;27.672;2023-06-26T10:23:53;97712.16;;;30.25;45.96
58373;BME280;44177;43.356;27.672;2023-06-26T10:26:21;97722.97;;;29.41;45.59
58373;BME280;44177;43.356;27.672;2023-06-26T10:28:48;97729.06;;;29.24;47.83
58373;BME280;44177;43.356;27.672;2023-06-26T10:31:20;97725.38;;;28.88;47.45
58373;BME280;44177;43.356;27.672;2023-06-26T10:33:48;97732.00;;;28.21;48.91
58373;BME280;44177;43.356;27.672;2023-06-26T10:36:19;97730.78;;;27.89;49.83
58373;BME280;44177;43.356;27.672;2023-06-26T10:39:05;97724.03;;;27.71;51.71
58373;BME280;44177;43.356;27.672;2023-06-26T10:41:40;97724.44;;;27.46;53.23
58373;BME280;44177;43.356;27.672;2023-06-26T10:44:08;97719.03;;;27.42;52.24
58373;BME280;44177;43.356;27.672;2023-06-26T10:46:51;97717.13;;;27.48;52.55
58373;BME280;44177;43.356;27.672;2023-06-26T10:49:18;97724.44;;;27.36;52.18
58373;BME280;44177;43.356;27.672;2023-06-26T10:51:50;97717.13;;;27.48;52.69
58373;BME280;44177;43.356;27.672;2023-06-26T10:54:18;97724.66;;;27.23;51.33
58373;BME280;44177;43.356;27.672;2023-06-26T10:56:46;97718.59;;;27.25;52.57
58373;BME280;44177;43.356;27.672;2023-06-26T11:01:41;97703.78;;;28.25;51.67
58373;BME280;44177;43.356;27.672;2023-06-26T11:04:10;97702.53;;;29.40;47.98
58373;BME280;44177;43.356;27.672;2023-06-26T11:06:38;97699.03;;;30.43;46.13
58373;BME280;44177;43.356;27.672;2023-06-26T11:14:18;97690.50;;;32.29;40.95
58373;BME280;44177;43.356;27.672;2023-06-26T11:16:43;97684.47;;;32.88;39.36
58373;BME280;44177;43.356;27.672;2023-06-26T11:19:12;97677.41;;;32.32;39.63
58373;BME280;44177;43.356;27.672;2023-06-26T11:21:38;97687.13;;;31.33;41.26
58373;BME280;44177;43.356;27.672;2023-06-26T11:24:08;97678.97;;;30.82;42.30
58373;BME280;44177;43.356;27.672;2023-06-26T11:26:42;97669.31;;;30.89;41.72
58373;BME280;44177;43.356;27.672;2023-06-26T11:29:08;97678.81;;;31.56;40.89
58373;BME280;44177;43.356;27.672;2023-06-26T11:31:35;97684.47;;;31.24;41.52
58373;BME280;44177;43.356;27.672;2023-06-26T11:34:06;97683.41;;;31.15;43.13
58373;BME280;44177;43.356;27.672;2023-06-26T11:36:39;97679.47;;;31.39;40.73
58373;BME280;44177;43.356;27.672;2023-06-26T11:39:07;97684.91;;;31.86;41.59
58373;BME280;44177;43.356;27.672;2023-06-26T11:41:34;97681.53;;;32.31;39.40
58373;BME280;44177;43.356;27.672;2023-06-26T11:44:08;97678.22;;;32.50;39.13
58373;BME280;44177;43.356;27.672;2023-06-26T11:46:37;97677.91;;;32.25;41.24
58373;BME280;44177;43.356;27.672;2023-06-26T11:49:04;97675.97;;;31.93;41.29
58373;BME280;44177;43.356;27.672;2023-06-26T11:51:29;97681.44;;;31.65;41.53
58373;BME280;44177;43.356;27.672;2023-06-26T11:53:55;97685.94;;;31.51;41.70
58373;BME280;44177;43.356;27.672;2023-06-26T11:56:20;97686.59;;;31.29;41.02
58373;BME280;44177;43.356;27.672;2023-06-26T12:01:23;97683.63;;;31.12;41.32
58373;BME280;44177;43.356;27.672;2023-06-26T12:03:50;97692.75;;;31.33;40.24
58373;BME280;44177;43.356;27.672;2023-06-26T12:06:16;97678.63;;;31.27;39.85
58373;BME280;44177;43.356;27.672;2023-06-26T12:08:42;97680.19;;;31.66;40.42
58373;BME280;44177;43.356;27.672;2023-06-26T12:11:08;97676.81;;;32.17;38.24
58373;BME280;44177;43.356;27.672;2023-06-26T12:13:34;97674.13;;;32.39;39.39
58373;BME280;44177;43.356;27.672;2023-06-26T12:15:59;97673.13;;;32.54;39.76
58373;BME280;44177;43.356;27.672;2023-06-26T12:18:25;97685.22;;;32.71;37.47
58373;BME280;44177;43.356;27.672;2023-06-26T12:20:52;97678.31;;;32.78;36.92
58373;BME280;44177;43.356;27.672;2023-06-26T12:23:17;97677.78;;;32.02;37.89
58373;BME280;44177;43.356;27.672;2023-06-26T12:25:43;97685.38;;;31.79;38.13
58373;BME280;44177;43.356;27.672;2023-06-26T12:28:18;97683.00;;;32.21;38.30
58373;BME280;44177;43.356;27.672;2023-06-26T12:30:47;97683.63;;;32.59;37.80
58373;BME280;44177;43.356;27.672;2023-06-26T12:33:14;97677.22;;;32.64;38.20
58373;BME280;44177;43.356;27.672;2023-06-26T12:35:40;97683.91;;;32.72;38.28
58373;BME280;44177;43.356;27.672;2023-06-26T12:38:07;97677.38;;;31.66;37.95
58373;BME280;44177;43.356;27.672;2023-06-26T12:40:44;97687.66;;;31.37;39.45
58373;BME280;44177;43.356;27.672;2023-06-26T12:43:22;97681.47;;;30.48;39.59
58373;BME280;44177;43.356;27.672;2023-06-26T12:45:54;97688.91;;;29.69;41.32
58373;BME280;44177;43.356;27.672;2023-06-26T12:48:19;97691.22;;;29.70;41.46
58373;BME280;44177;43.356;27.672;2023-06-26T12:50:45;97690.38;;;29.85;42.30
58373;BME280;44177;43.356;27.672;2023-06-26T12:53:11;97677.94;;;29.71;41.69
58373;BME280;44177;43.356;27.672;2023-06-26T12:55:36;97697.00;;;29.46;41.17
58373;BME280;44177;43.356;27.672;2023-06-26T12:58:02;97697.63;;;28.90;41.44
58373;BME280;44177;43.356;27.672;2023-06-26T13:00:27;97695.19;;;28.83;42.19